Time;durP1;ratioP1;P1;durP2;ratioP2;P2;SDS_P1;SDS_P2;PMS_P1;PMS_P2;Temp;Humidity;BMP_temperature;BMP_pressure;BME280_temperature;BME280_humidity;BME280_pressure;Samples;Min_cycle;Max_cycle;Signal;HPM_P1;HPM_P2
2022/04/10 00:00:55;;;;;;;3.70;2.67;;;2.70;99.90;;;;;;5008656;28;20050;-82
2022/04/10 00:03:25;;;;;;;5.40;3.13;;;2.70;99.90;;;;;;5009401;28;20037;-82
2022/04/10 00:05:52;;;;;;;5.68;3.47;;;2.50;99.90;;;;;;5012298;28;20478;-82
2022/04/10 00:08:19;;;;;;;2.97;2.50;;;2.40;99.90;;;;;;5007314;28;20049;-81
2022/04/10 00:10:45;;;;;;;4.72;3.08;;;2.20;99.90;;;;;;5012506;28;20451;-81
2022/04/10 00:13:12;;;;;;;6.15;3.13;;;2.20;99.90;;;;;;5010659;28;20033;-81
2022/04/10 00:15:38;;;;;;;6.25;3.08;;;2.10;99.90;;;;;;5012608;28;20033;-82
2022/04/10 00:18:05;;;;;;;4.65;2.65;;;2.10;99.90;;;;;;5012389;28;20037;-81
2022/04/10 00:20:31;;;;;;;3.03;2.35;;;2.10;99.90;;;;;;5011603;28;20037;-81
2022/04/10 00:22:57;;;;;;;3.97;3.10;;;2.20;99.90;;;;;;5010860;28;20247;-81
2022/04/10 00:25:24;;;;;;;5.60;4.22;;;2.20;99.90;;;;;;5011889;28;20033;-81
2022/04/10 00:27:50;;;;;;;4.28;3.72;;;2.50;99.90;;;;;;5024377;28;20406;-81
2022/04/10 00:30:18;;;;;;;3.95;3.15;;;2.60;99.90;;;;;;5027713;28;20045;-81
2022/04/10 00:32:44;;;;;;;4.93;3.03;;;2.70;99.90;;;;;;5030498;28;20025;-81
2022/04/10 00:35:12;;;;;;;4.93;3.28;;;2.70;99.90;;;;;;5030448;28;20029;-80
2022/04/10 00:37:38;;;;;;;4.03;2.90;;;2.70;99.90;;;;;;5033268;28;20040;-81
2022/04/10 00:40:07;;;;;;;3.35;2.90;;;2.70;99.90;;;;;;5029771;28;20033;-81
2022/04/10 00:42:38;;;;;;;4.15;2.85;;;2.70;99.90;;;;;;5033772;28;20040;-81
2022/04/10 00:45:06;;;;;;;4.53;3.55;;;2.60;99.90;;;;;;5032550;28;20033;-81
2022/04/10 00:47:33;;;;;;;6.43;3.08;;;2.40;99.90;;;;;;5034757;28;20467;-81
2022/04/10 00:50:04;;;;;;;6.68;3.20;;;2.20;99.90;;;;;;5034702;28;20036;-81
2022/04/10 00:52:31;;;;;;;3.78;2.78;;;2.10;99.90;;;;;;5033417;28;20459;-81
2022/04/10 00:54:57;;;;;;;6.63;3.72;;;2.00;99.90;;;;;;5035353;28;20053;-80
2022/04/10 00:57:24;;;;;;;5.32;2.72;;;2.00;99.90;;;;;;5032729;28;20036;-80
2022/04/10 00:59:51;;;;;;;4.63;2.88;;;1.90;99.90;;;;;;5034084;28;20037;-80
2022/04/10 01:02:18;;;;;;;6.10;3.85;;;1.90;99.90;;;;;;5032653;28;20778;-80
2022/04/10 01:04:46;;;;;;;6.07;3.30;;;1.90;99.90;;;;;;5032827;28;20025;-80
2022/04/10 01:07:13;;;;;;;4.45;2.88;;;1.90;99.90;;;;;;5034770;28;20481;-80
2022/04/10 01:09:43;;;;;;;7.32;5.00;;;1.90;99.90;;;;;;5017192;28;20046;-81
2022/04/10 01:12:11;;;;;;;4.78;4.38;;;2.10;99.90;;;;;;5033247;28;20044;-79
2022/04/10 01:14:40;;;;;;;4.72;3.85;;;2.10;99.90;;;;;;5027166;28;20053;-81
2022/04/10 01:17:10;;;;;;;8.07;4.65;;;2.20;99.90;;;;;;5030960;28;20041;-81
2022/04/10 01:19:38;;;;;;;6.35;4.30;;;2.30;99.90;;;;;;5016435;28;20045;-80
2022/04/10 01:22:06;;;;;;;4.80;4.30;;;2.40;99.90;;;;;;5025810;28;20037;-80
2022/04/10 01:24:40;;;;;;;4.57;4.07;;;2.40;99.90;;;;;;5015084;28;20037;-80
2022/04/10 01:27:10;;;;;;;4.10;3.70;;;2.40;99.90;;;;;;5016328;28;20475;-80
2022/04/10 01:29:37;;;;;;;4.88;4.30;;;2.40;99.90;;;;;;5020841;28;20037;-80
2022/04/10 01:32:03;;;;;;;5.25;3.85;;;2.50;99.90;;;;;;5015202;28;20045;-80
2022/04/10 01:34:30;;;;;;;4.32;3.83;;;2.60;99.90;;;;;;5030278;28;20375;-80
2022/04/10 01:36:56;;;;;;;7.13;4.50;;;2.70;99.90;;;;;;5033783;28;20022;-80
2022/04/10 01:39:22;;;;;;;4.10;3.70;;;2.70;99.90;;;;;;5016067;28;20406;-79
2022/04/10 01:41:51;;;;;;;5.63;3.70;;;2.70;99.90;;;;;;5018333;28;20037;-79
2022/04/10 01:44:17;;;;;;;6.00;4.55;;;2.70;99.90;;;;;;5017285;28;20049;-80
2022/04/10 01:46:43;;;;;;;5.13;3.80;;;2.70;99.90;;;;;;5034546;28;20383;-80
2022/04/10 01:49:11;;;;;;;5.07;3.30;;;2.60;99.90;;;;;;4998905;28;20072;-79
2022/04/10 01:51:38;;;;;;;3.45;3.15;;;2.50;99.90;;;;;;5016022;28;20048;-79
2022/04/10 01:54:05;;;;;;;5.65;4.25;;;2.40;99.90;;;;;;5029690;28;20045;-81
2022/04/10 01:56:32;;;;;;;8.07;5.10;;;2.50;99.90;;;;;;5015648;28;20479;-80
2022/04/10 01:59:00;;;;;;;5.13;4.07;;;2.50;99.90;;;;;;5015974;28;20049;-80
2022/04/10 02:01:27;;;;;;;6.00;4.18;;;2.40;99.90;;;;;;5014002;28;20395;-80
2022/04/10 02:03:53;;;;;;;4.60;3.60;;;2.40;99.90;;;;;;5013502;28;20034;-80
2022/04/10 02:06:19;;;;;;;9.27;4.35;;;2.20;99.90;;;;;;5029424;28;20046;-80
2022/04/10 02:08:49;;;;;;;7.40;5.43;;;2.30;99.90;;;;;;5015348;28;20045;-80
2022/04/10 02:11:19;;;;;;;6.43;4.75;;;2.20;99.90;;;;;;5015148;28;20510;-80
2022/04/10 02:13:47;;;;;;;7.60;4.30;;;2.30;99.90;;;;;;5013688;28;20046;-80
2022/04/10 02:16:17;;;;;;;5.50;4.97;;;2.30;99.90;;;;;;4995841;28;20049;-79
2022/04/10 02:18:43;;;;;;;12.38;4.47;;;2.30;99.90;;;;;;5033725;28;20386;-80
2022/04/10 02:21:11;;;;;;;7.10;5.47;;;2.20;99.90;;;;;;5016210;28;20103;-80
2022/04/10 02:23:37;;;;;;;6.07;4.22;;;2.30;99.90;;;;;;5031908;28;20030;-80
2022/04/10 02:26:06;;;;;;;9.57;5.60;;;2.30;99.90;;;;;;5013049;28;20042;-80
2022/04/10 02:28:32;;;;;;;6.32;4.63;;;2.30;99.90;;;;;;5033416;28;20474;-80
2022/04/10 02:31:00;;;;;;;9.45;5.50;;;2.30;99.90;;;;;;5014055;28;20502;-80
2022/04/10 02:33:26;;;;;;;4.18;3.83;;;2.40;99.90;;;;;;5010551;28;20045;-80
2022/04/10 02:35:53;;;;;;;5.55;4.68;;;2.30;99.90;;;;;;5015240;28;20483;-79
2022/04/10 02:38:20;;;;;;;8.48;6.25;;;2.30;99.90;;;;;;5014833;28;20056;-81
2022/04/10 02:40:46;;;;;;;5.53;4.60;;;2.40;99.90;;;;;;5015191;28;20072;-79
2022/04/10 02:43:14;;;;;;;6.20;4.55;;;2.30;99.90;;;;;;5013410;28;20394;-80
2022/04/10 02:45:44;;;;;;;7.78;4.25;;;2.40;99.90;;;;;;5015315;28;20041;-80
2022/04/10 02:48:11;;;;;;;5.68;5.10;;;2.40;99.90;;;;;;5015493;28;20038;-80
2022/04/10 02:50:39;;;;;;;5.85;4.70;;;2.30;99.90;;;;;;5014590;28;20414;-80
2022/04/10 02:53:06;;;;;;;4.63;4.22;;;2.20;99.90;;;;;;5013153;28;20042;-80
2022/04/10 02:55:33;;;;;;;7.03;5.10;;;2.10;99.90;;;;;;5010817;28;20410;-80
2022/04/10 02:58:00;;;;;;;5.80;4.82;;;2.10;99.90;;;;;;5031382;28;20429;-80
2022/04/10 03:00:27;;;;;;;5.85;5.13;;;2.20;99.90;;;;;;5032187;28;20040;-80
2022/04/10 03:02:53;;;;;;;7.95;5.35;;;2.20;99.90;;;;;;5013216;28;20052;-80
2022/04/10 03:05:20;;;;;;;4.80;4.28;;;2.20;99.90;;;;;;5025890;28;20052;-80
2022/04/10 03:07:46;;;;;;;8.45;4.60;;;2.20;99.90;;;;;;5031190;28;20041;-80
2022/04/10 03:10:13;;;;;;;6.75;5.55;;;2.10;99.90;;;;;;4996114;28;20048;-78
2022/04/10 03:12:41;;;;;;;7.00;4.85;;;2.00;99.90;;;;;;5012979;28;20044;-80
2022/04/10 03:15:08;;;;;;;8.57;4.18;;;2.10;99.90;;;;;;5029578;28;20034;-80
2022/04/10 03:17:35;;;;;;;4.50;4.07;;;1.90;99.90;;;;;;5015642;28;20049;-80
2022/04/10 03:20:04;;;;;;;9.30;5.28;;;1.70;99.90;;;;;;5017018;28;20403;-80
2022/04/10 03:22:31;;;;;;;6.18;4.88;;;1.60;99.90;;;;;;5013329;28;20474;-80
2022/04/10 03:24:57;;;;;;;7.90;4.85;;;1.70;99.90;;;;;;5029339;28;20034;-79
2022/04/10 03:27:23;;;;;;;12.52;5.82;;;1.80;99.90;;;;;;5012920;28;20053;-80
2022/04/10 03:29:50;;;;;;;6.45;4.88;;;1.80;99.90;;;;;;5007426;28;20034;-80
2022/04/10 03:32:16;;;;;;;6.25;5.50;;;1.80;99.90;;;;;;5024994;28;20038;-80
2022/04/10 03:34:42;;;;;;;5.60;4.95;;;1.70;99.90;;;;;;5014410;28;20037;-80
2022/04/10 03:37:09;;;;;;;6.90;5.50;;;1.50;99.90;;;;;;5012170;28;20053;-80
2022/04/10 03:39:36;;;;;;;6.90;5.15;;;1.30;99.90;;;;;;5013790;28;20056;-80
2022/04/10 03:42:03;;;;;;;5.55;4.20;;;0.90;99.90;;;;;;5012796;28;20050;-80
2022/04/10 03:44:31;;;;;;;7.80;4.60;;;0.60;99.90;;;;;;5009589;28;20038;-80
2022/04/10 03:46:58;;;;;;;6.78;6.05;;;0.30;99.90;;;;;;4995170;28;20369;-79
2022/04/10 03:49:24;;;;;;;10.90;6.93;;;0.10;99.90;;;;;;5029183;28;20041;-79
2022/04/10 03:51:50;;;;;;;10.00;6.40;;;0.00;99.90;;;;;;5020945;28;20037;-80
2022/04/10 03:54:17;;;;;;;10.32;6.63;;;-0.10;99.90;;;;;;5030446;28;20037;-79
2022/04/10 03:56:43;;;;;;;7.05;5.85;;;-0.20;99.90;;;;;;5032986;28;20037;-79
2022/04/10 03:59:09;;;;;;;10.02;6.68;;;-0.30;99.90;;;;;;5030600;28;20048;-79
2022/04/10 04:01:36;;;;;;;10.05;6.38;;;-0.40;99.90;;;;;;5027784;28;20053;-79
2022/04/10 04:04:03;;;;;;;8.27;7.07;;;-0.40;99.90;;;;;;5031880;28;20049;-79
2022/04/10 04:06:30;;;;;;;7.30;6.47;;;-0.50;99.90;;;;;;5027676;28;20026;-79
2022/04/10 04:08:56;;;;;;;7.95;6.55;;;-0.50;99.90;;;;;;5015317;28;20061;-80
2022/04/10 04:11:23;;;;;;;10.43;7.18;;;-0.60;99.90;;;;;;5013654;28;20391;-79
2022/04/10 04:13:50;;;;;;;6.85;5.40;;;-0.60;99.90;;;;;;5016855;28;20037;-80
2022/04/10 04:16:16;;;;;;;8.23;5.35;;;-0.70;99.90;;;;;;5029692;28;20034;-80
2022/04/10 04:18:43;;;;;;;4.80;4.40;;;-0.70;99.90;;;;;;5017268;28;20056;-80
2022/04/10 04:21:10;;;;;;;6.15;4.38;;;-0.80;99.90;;;;;;5017983;28;20052;-80
2022/04/10 04:23:42;;;;;;;6.65;5.47;;;-0.90;99.90;;;;;;5016489;28;20042;-80
2022/04/10 04:26:10;;;;;;;8.00;5.80;;;-0.90;99.90;;;;;;5018003;28;20078;-80
2022/04/10 04:28:37;;;;;;;7.30;6.32;;;-0.90;99.90;;;;;;5013978;28;20061;-80
2022/04/10 04:31:04;;;;;;;10.18;6.50;;;-0.90;99.90;;;;;;5025523;28;20042;-80
2022/04/10 04:33:33;;;;;;;8.77;7.30;;;-0.90;99.90;;;;;;5011776;28;20038;-80
2022/04/10 04:36:00;;;;;;;8.10;7.30;;;-1.00;99.90;;;;;;5013264;28;20042;-79
2022/04/10 04:38:27;;;;;;;13.63;8.73;;;-0.90;99.90;;;;;;5012258;28;20050;-80
2022/04/10 04:40:53;;;;;;;9.82;8.35;;;-0.80;99.90;;;;;;5014709;28;20041;-80
2022/04/10 04:43:21;;;;;;;8.45;7.65;;;-0.80;99.90;;;;;;5012646;28;20053;-79
2022/04/10 04:45:47;;;;;;;11.35;10.00;;;-0.80;99.90;;;;;;5018874;28;20053;-80
2022/04/10 04:48:15;;;;;;;22.67;18.65;;;-0.70;99.90;;;;;;5013859;28;20042;-79
2022/04/10 04:50:44;;;;;;;23.65;21.10;;;-0.70;99.90;;;;;;5014189;28;20050;-80
2022/04/10 04:53:13;;;;;;;27.38;24.02;;;-0.70;99.90;;;;;;5010837;28;20047;-80
2022/04/10 04:55:41;;;;;;;30.85;25.55;;;-0.60;99.90;;;;;;5015016;28;20034;-79
2022/04/10 04:58:07;;;;;;;21.23;15.20;;;-0.50;99.90;;;;;;5015470;28;20052;-80
2022/04/10 05:00:36;;;;;;;32.83;25.40;;;-0.40;99.90;;;;;;5011328;28;20078;-79
2022/04/10 05:03:03;;;;;;;27.83;22.48;;;-0.20;99.90;;;;;;5012856;28;20487;-80
2022/04/10 05:05:31;;;;;;;28.42;21.42;;;-0.20;99.90;;;;;;5007921;28;20034;-80
2022/04/10 05:08:04;;;;;;;48.28;37.65;;;0.00;99.90;;;;;;5014966;28;20404;-80
2022/04/10 05:10:31;;;;;;;33.05;28.63;;;0.20;99.90;;;;;;5015178;28;20030;-80
2022/04/10 05:12:58;;;;;;;289.23;217.38;;;0.40;99.90;;;;;;5009814;28;20041;-81
2022/04/10 05:15:26;;;;;;;173.70;132.27;;;0.50;99.90;;;;;;5010693;28;20049;-81
2022/04/10 05:17:53;;;;;;;143.77;102.50;;;0.60;99.90;;;;;;5014811;28;20042;-81
2022/04/10 05:20:21;;;;;;;33.80;30.30;;;0.80;99.90;;;;;;5013527;28;20045;-81
2022/04/10 05:23:01;;;;;;;21.13;17.83;;;0.90;99.90;;;;;;5024560;28;20188;-82
2022/04/10 05:25:30;;;;;;;34.85;21.13;;;0.90;99.90;;;;;;5014622;28;20042;-81
2022/04/10 05:27:56;;;;;;;21.73;15.93;;;1.00;99.90;;;;;;5022476;28;20045;-81
2022/04/10 05:30:22;;;;;;;23.52;16.88;;;1.00;99.90;;;;;;5016215;28;20049;-81
2022/04/10 05:32:51;;;;;;;17.73;15.43;;;1.00;99.90;;;;;;5030746;28;20041;-81
2022/04/10 05:35:17;;;;;;;20.70;17.95;;;1.20;99.90;;;;;;5015569;28;20045;-81
2022/04/10 05:37:45;;;;;;;27.48;18.13;;;1.20;99.90;;;;;;4999797;28;20475;-81
2022/04/10 05:40:12;;;;;;;23.10;16.50;;;1.30;99.90;;;;;;5012863;28;20041;-81
2022/04/10 05:42:45;;;;;;;19.25;17.20;;;1.30;99.90;;;;;;4998463;28;20048;-79
2022/04/10 05:45:12;;;;;;;18.70;16.42;;;1.40;99.90;;;;;;5021569;28;20371;-80
2022/04/10 05:47:44;;;;;;;20.00;15.07;;;1.50;99.90;;;;;;5016960;28;20045;-80
2022/04/10 05:50:11;;;;;;;24.85;13.52;;;1.60;99.90;;;;;;5017416;28;20041;-79
2022/04/10 05:52:39;;;;;;;16.80;15.02;;;1.70;99.90;;;;;;5019781;28;20042;-80
2022/04/10 05:55:07;;;;;;;16.27;13.00;;;1.80;99.90;;;;;;5030365;28;20042;-80
2022/04/10 05:57:34;;;;;;;17.73;12.40;;;1.80;99.90;;;;;;5014631;28;20041;-80
2022/04/10 06:00:04;;;;;;;12.85;10.45;;;1.80;99.90;;;;;;5017957;28;20482;-80
2022/04/10 06:02:42;;;;;;;10.23;8.70;;;1.80;99.90;;;;;;5035482;28;20048;-80
2022/04/10 06:05:09;;;;;;;11.65;9.73;;;1.80;99.90;;;;;;5015512;28;20052;-80
2022/04/10 06:07:43;;;;;;;10.07;9.07;;;1.80;99.90;;;;;;5015164;28;20046;-80
2022/04/10 06:10:11;;;;;;;12.20;9.40;;;1.80;99.90;;;;;;4980347;28;20052;-80
2022/04/10 06:12:38;;;;;;;10.45;8.90;;;1.90;99.90;;;;;;5013798;28;20045;-80
2022/04/10 06:15:05;;;;;;;11.73;10.27;;;1.80;99.90;;;;;;5013704;28;20042;-80
2022/04/10 06:17:34;;;;;;;17.50;10.15;;;1.80;99.90;;;;;;5015694;28;20499;-80
2022/04/10 06:20:01;;;;;;;11.45;9.80;;;1.90;99.90;;;;;;5013767;28;20057;-80
2022/04/10 06:22:30;;;;;;;13.05;10.85;;;1.90;99.90;;;;;;5013611;28;20068;-80
2022/04/10 06:24:57;;;;;;;11.68;10.52;;;1.90;99.90;;;;;;5015632;28;20041;-80
2022/04/10 06:27:25;;;;;;;25.92;16.23;;;2.00;99.90;;;;;;5014786;28;20046;-80
2022/04/10 06:29:51;;;;;;;11.52;10.40;;;2.10;99.90;;;;;;5016136;28;20052;-80
2022/04/10 06:32:17;;;;;;;10.02;9.05;;;2.20;99.90;;;;;;5030358;28;20048;-79
2022/04/10 06:34:45;;;;;;;9.35;8.23;;;2.20;99.90;;;;;;5015517;28;20045;-80
2022/04/10 06:37:14;;;;;;;10.65;8.52;;;2.20;99.90;;;;;;5008829;28;20037;-79
2022/04/10 06:39:41;;;;;;;10.63;6.78;;;2.30;99.90;;;;;;5024806;28;20049;-80
2022/04/10 06:42:08;;;;;;;12.40;8.13;;;2.30;99.90;;;;;;5014209;28;20048;-79
2022/04/10 06:44:53;;;;;;;7.53;6.82;;;2.30;99.90;;;;;;5027641;28;20490;-79
2022/04/10 06:47:38;;;;;;;8.15;7.45;;;2.40;99.90;;;;;;5031162;28;20041;-79
2022/04/10 06:50:05;;;;;;;9.43;8.55;;;2.40;99.90;;;;;;5010895;28;20049;-79
2022/04/10 06:52:35;;;;;;;14.55;9.65;;;2.40;99.90;;;;;;5010430;28;20060;-79
2022/04/10 06:55:02;;;;;;;10.75;7.63;;;2.40;99.90;;;;;;5015169;28;20045;-80
2022/04/10 06:57:28;;;;;;;10.10;7.35;;;2.40;99.90;;;;;;5014408;28;20037;-79
2022/04/10 06:59:54;;;;;;;8.15;6.53;;;2.40;99.90;;;;;;4995205;28;20053;-80
2022/04/10 07:02:21;;;;;;;8.93;7.63;;;2.50;99.90;;;;;;5012422;28;20495;-80
2022/04/10 07:04:52;;;;;;;8.52;7.63;;;2.60;99.90;;;;;;5014918;28;20042;-82
2022/04/10 07:07:19;;;;;;;9.05;7.05;;;2.70;99.90;;;;;;5014775;28;20048;-81
2022/04/10 07:09:45;;;;;;;8.30;7.47;;;2.70;99.90;;;;;;5024108;28;20040;-80
2022/04/10 07:12:11;;;;;;;12.75;8.63;;;2.80;99.90;;;;;;5033417;28;20044;-80
2022/04/10 07:14:43;;;;;;;9.85;8.85;;;2.80;99.90;;;;;;5030037;28;20037;-81
2022/04/10 07:17:10;;;;;;;13.60;6.50;;;2.90;99.90;;;;;;5014640;28;20045;-80
2022/04/10 07:19:36;;;;;;;9.02;7.47;;;2.80;99.90;;;;;;5014562;28;20052;-80
2022/04/10 07:24:48;;;;;;;9.98;6.80;;;2.90;99.90;;;;;;5027587;28;20030;-81
2022/04/10 07:27:14;;;;;;;10.18;7.32;;;3.00;99.90;;;;;;5030184;28;20494;-80
2022/04/10 07:29:55;;;;;;;7.82;6.72;;;3.10;99.90;;;;;;5011329;28;20490;-80
2022/04/10 07:32:26;;;;;;;7.93;7.13;;;3.10;99.90;;;;;;5012677;28;20502;-80
2022/04/10 07:35:06;;;;;;;9.82;8.00;;;3.20;99.90;;;;;;5026389;28;20092;-80
2022/04/10 07:37:51;;;;;;;9.30;7.28;;;3.20;99.90;;;;;;5022435;28;20041;-80
2022/04/10 07:40:19;;;;;;;9.35;7.85;;;3.20;99.90;;;;;;5014269;28;20487;-81
2022/04/10 07:42:46;;;;;;;7.28;6.60;;;3.10;99.90;;;;;;5013924;28;20048;-80
2022/04/10 07:48:13;;;;;;;7.13;6.45;;;3.00;99.90;;;;;;5012879;28;20073;-81
2022/04/10 07:50:39;;;;;;;8.38;7.57;;;3.00;99.90;;;;;;5014478;28;20046;-81
2022/04/10 07:53:07;;;;;;;10.05;7.60;;;3.00;99.90;;;;;;5011774;28;20037;-80
2022/04/10 07:55:37;;;;;;;9.68;8.43;;;3.00;99.90;;;;;;5015153;28;20037;-82
2022/04/10 07:58:07;;;;;;;11.53;9.07;;;2.90;99.90;;;;;;5016865;28;20414;-82
2022/04/10 08:00:35;;;;;;;8.73;7.22;;;2.80;99.90;;;;;;5007168;28;20556;-83
2022/04/10 08:03:05;;;;;;;10.10;9.10;;;2.70;99.90;;;;;;5002512;28;20045;-84
2022/04/10 08:05:56;;;;;;;9.85;8.95;;;2.60;99.90;;;;;;4999197;28;20052;-84
2022/04/10 08:08:32;;;;;;;12.05;9.18;;;2.50;99.90;;;;;;5008004;28;20198;-83
2022/04/10 08:10:59;;;;;;;11.75;9.70;;;2.50;99.90;;;;;;5019972;28;20038;-83
2022/04/10 08:13:25;;;;;;;10.38;9.55;;;2.40;99.90;;;;;;5013736;28;20132;-84
2022/04/10 08:15:51;;;;;;;12.25;10.15;;;2.40;99.90;;;;;;4997733;28;20041;-86
2022/04/10 08:18:18;;;;;;;14.10;10.30;;;2.40;99.90;;;;;;5024832;28;20026;-82
2022/04/10 08:20:44;;;;;;;13.13;10.73;;;2.30;99.90;;;;;;5009426;28;20474;-85
2022/04/10 08:23:10;;;;;;;10.80;9.85;;;2.20;99.90;;;;;;5024851;28;20041;-85
2022/04/10 08:25:36;;;;;;;13.93;12.50;;;2.30;99.90;;;;;;5031992;28;20026;-85
2022/04/10 08:28:03;;;;;;;12.98;11.75;;;2.40;99.90;;;;;;5032308;28;20483;-84
2022/04/10 08:30:29;;;;;;;12.23;11.02;;;2.30;99.90;;;;;;5031948;28;20482;-87
2022/04/10 08:32:55;;;;;;;15.38;11.85;;;2.20;99.90;;;;;;5031601;28;20029;-87
2022/04/10 08:35:21;;;;;;;14.13;11.98;;;2.40;99.90;;;;;;5036483;28;20033;-87
2022/04/10 08:37:48;;;;;;;14.90;11.98;;;2.50;99.90;;;;;;5015191;28;20459;-87
2022/04/10 08:40:15;;;;;;;13.82;12.50;;;2.60;99.90;;;;;;4998405;28;20041;-86
2022/04/10 08:42:41;;;;;;;18.33;13.27;;;2.60;99.90;;;;;;5031087;28;20025;-87
2022/04/10 08:45:08;;;;;;;14.23;12.88;;;2.60;99.90;;;;;;5029474;28;20040;-89
2022/04/10 08:47:38;;;;;;;14.80;11.98;;;2.70;99.90;;;;;;5013251;28;20030;-86
2022/04/10 08:50:06;;;;;;;15.85;12.27;;;2.80;99.90;;;;;;5026271;28;20033;-87
2022/04/10 08:52:34;;;;;;;18.15;13.70;;;2.90;99.90;;;;;;5013256;28;20025;-87
2022/04/10 08:55:00;;;;;;;16.70;15.00;;;3.00;99.90;;;;;;5023407;28;20034;-87
2022/04/10 08:57:26;;;;;;;16.98;13.52;;;3.20;99.90;;;;;;5007115;28;20042;-86
2022/04/10 08:59:57;;;;;;;16.98;14.65;;;3.30;99.90;;;;;;5025258;28;20037;-89
2022/04/10 09:02:24;;;;;;;17.30;15.70;;;3.30;99.90;;;;;;5034944;28;20490;-88
2022/04/10 09:04:50;;;;;;;14.18;12.73;;;3.10;99.90;;;;;;5036045;28;20029;-87
2022/04/10 09:07:17;;;;;;;17.38;15.68;;;3.00;99.90;;;;;;5016168;28;20060;-89
2022/04/10 09:09:53;;;;;;;17.80;16.17;;;3.10;99.90;;;;;;5036279;28;20036;-89
2022/04/10 09:12:20;;;;;;;31.77;17.52;;;3.20;99.90;;;;;;5015848;28;20046;-87
2022/04/10 09:14:47;;;;;;;19.73;16.02;;;3.20;99.90;;;;;;5036309;28;20093;-88
2022/04/10 09:17:15;;;;;;;18.27;16.40;;;3.20;99.90;;;;;;5036660;28;20032;-90
2022/04/10 09:19:51;;;;;;;18.27;15.57;;;3.30;99.90;;;;;;5017969;28;20045;-88
2022/04/10 09:22:35;;;;;;;19.85;17.90;;;3.50;99.90;;;;;;5022391;28;20037;-86
2022/04/10 09:25:16;;;;;;;20.08;18.15;;;3.70;99.90;;;;;;5035312;28;20026;-87
2022/04/10 09:27:44;;;;;;;16.65;15.15;;;4.10;99.90;;;;;;5039960;28;20395;-84
2022/04/10 09:30:12;;;;;;;17.02;14.88;;;4.30;99.90;;;;;;5032929;28;20033;-86
2022/04/10 09:32:40;;;;;;;16.05;13.75;;;4.30;99.90;;;;;;5031292;28;20041;-85
2022/04/10 09:35:07;;;;;;;37.92;33.60;;;4.50;99.90;;;;;;5029141;28;20042;-84
2022/04/10 09:37:45;;;;;;;20.88;18.35;;;4.80;99.90;;;;;;5013949;28;20029;-84
2022/04/10 09:40:34;;;;;;;19.17;15.40;;;4.80;99.90;;;;;;5013590;28;20049;-85
2022/04/10 09:43:06;;;;;;;24.60;22.20;;;4.80;99.90;;;;;;5037448;28;20040;-84
2022/04/10 09:45:36;;;;;;;15.85;14.10;;;5.40;99.90;;;;;;5034808;28;20635;-83
2022/04/10 09:48:24;;;;;;;13.98;12.52;;;5.50;99.90;;;;;;5040961;28;20048;-85
2022/04/10 09:51:00;;;;;;;13.18;11.82;;;5.20;99.90;;;;;;5036914;28;20029;-76
2022/04/10 09:53:26;;;;;;;20.88;18.13;;;5.20;99.90;;;;;;5037039;28;20390;-83
2022/04/10 09:55:57;;;;;;;15.32;12.23;;;5.00;99.90;;;;;;5032185;28;20037;-84
2022/04/10 09:58:24;;;;;;;;;;;5.20;99.90;;;;;;5027190;28;20029;-85
2022/04/10 10:00:54;;;;;;;13.05;11.85;;;5.10;99.90;;;;;;5028072;28;19914;-86
2022/04/10 10:03:25;;;;;;;18.87;11.20;;;5.30;99.90;;;;;;5032148;28;20048;-76
2022/04/10 10:05:52;;;;;;;15.20;11.38;;;5.80;99.90;;;;;;5004471;28;20299;-84
2022/04/10 10:08:20;;;;;;;11.75;10.55;;;6.10;99.90;;;;;;5036421;28;20037;-86
2022/04/10 10:10:46;;;;;;;13.57;10.10;;;6.00;99.90;;;;;;5033242;28;20040;-85
2022/04/10 10:13:13;;;;;;;10.93;8.77;;;6.10;99.90;;;;;;5020410;28;20037;-84
2022/04/10 10:15:43;;;;;;;9.80;8.85;;;6.00;99.90;;;;;;5050466;28;20261;-84
2022/04/10 10:18:12;;;;;;;11.05;9.70;;;5.90;99.90;;;;;;5056321;28;20026;-85
2022/04/10 10:20:40;;;;;;;12.18;10.95;;;5.80;99.90;;;;;;5050102;28;20036;-82
2022/04/10 10:23:11;;;;;;;11.40;10.05;;;5.70;99.90;;;;;;5041585;28;20037;-84
2022/04/10 10:25:43;;;;;;;14.32;10.27;;;5.90;99.90;;;;;;5019250;28;20387;-83
2022/04/10 10:28:35;;;;;;;10.75;8.77;;;6.40;99.90;;;;;;5029916;28;20050;-78
2022/04/10 10:31:11;;;;;;;11.38;10.27;;;6.60;99.90;;;;;;5031741;28;20042;-81
2022/04/10 10:33:40;;;;;;;10.80;9.70;;;6.70;99.90;;;;;;5030357;28;20033;-81
2022/04/10 10:36:10;;;;;;;10.02;9.15;;;6.70;99.90;;;;;;5030731;28;20044;-81
2022/04/10 10:38:51;;;;;;;28.45;23.52;;;6.60;99.90;;;;;;5035998;28;20054;-81
2022/04/10 10:41:17;;;;;;;36.70;29.45;;;6.20;99.90;;;;;;5030753;28;20040;-82
2022/04/10 10:43:46;;;;;;;18.65;17.00;;;6.10;99.90;;;;;;5015026;28;20383;-82
2022/04/10 10:46:34;;;;;;;18.52;14.75;;;5.90;99.90;;;;;;5038684;28;20036;-82
2022/04/10 10:49:19;;;;;;;11.02;10.02;;;5.60;99.90;;;;;;5027950;28;20033;-83
2022/04/10 10:51:45;;;;;;;13.27;12.00;;;5.40;99.90;;;;;;5028844;28;20467;-84
2022/04/10 10:54:14;;;;;;;15.40;13.90;;;5.40;99.90;;;;;;5033909;28;20037;-84
2022/04/10 10:56:43;;;;;;;16.75;15.07;;;5.70;99.90;;;;;;5011245;28;20501;-83
2022/04/10 10:59:31;;;;;;;14.23;12.77;;;6.00;99.90;;;;;;5033844;28;20038;-84
2022/04/10 11:02:11;;;;;;;14.60;13.15;;;6.30;99.90;;;;;;5014496;28;20049;-83
2022/04/10 11:04:45;;;;;;;15.65;13.95;;;6.80;99.90;;;;;;5032928;28;20037;-82
2022/04/10 11:07:23;;;;;;;15.25;11.90;;;6.90;99.90;;;;;;5015551;28;20064;-80
2022/04/10 11:10:11;;;;;;;13.90;12.55;;;6.60;99.90;;;;;;5028214;28;20041;-81
2022/04/10 11:12:48;;;;;;;21.40;12.57;;;6.60;99.90;;;;;;5024603;28;20021;-80
2022/04/10 11:15:21;;;;;;;11.90;10.32;;;6.60;99.90;;;;;;5026777;28;20029;-78
2022/04/10 11:17:49;;;;;;;13.95;12.50;;;6.70;99.90;;;;;;5032558;28;20466;-77
2022/04/10 11:20:18;;;;;;;13.27;11.25;;;6.70;99.90;;;;;;5014200;28;20049;-80
2022/04/10 11:22:51;;;;;;;12.35;11.10;;;6.60;99.90;;;;;;5026708;28;20033;-79
2022/04/10 11:25:41;;;;;;;9.90;9.15;;;6.90;99.90;;;;;;5032603;28;20044;-76
2022/04/10 11:28:07;;;;;;;11.60;9.10;;;7.20;99.90;;;;;;5027779;28;20486;-76
2022/04/10 11:30:41;;;;;;;9.40;8.48;;;7.70;99.90;;;;;;5031785;28;20048;-82
2022/04/10 11:33:09;;;;;;;11.38;10.25;;;7.50;99.90;;;;;;5032206;28;20378;-78
2022/04/10 11:35:45;;;;;;;10.85;9.50;;;7.60;99.90;;;;;;5028803;28;20483;-78
2022/04/10 11:38:17;;;;;;;15.05;9.80;;;7.60;99.90;;;;;;5031722;28;20044;-83
2022/04/10 11:40:50;;;;;;;12.50;9.43;;;8.00;99.90;;;;;;5031209;28;20487;-79
2022/04/10 11:43:18;;;;;;;10.02;9.05;;;8.30;99.90;;;;;;5031834;28;20061;-76
2022/04/10 11:45:48;;;;;;;14.32;8.02;;;8.60;99.90;;;;;;5029595;28;20033;-78
2022/04/10 11:48:15;;;;;;;8.90;7.93;;;8.80;99.90;;;;;;5014565;28;20045;-79
2022/04/10 11:50:41;;;;;;;11.95;8.63;;;8.20;99.90;;;;;;5031796;28;20034;-75
2022/04/10 11:53:11;;;;;;;11.07;8.52;;;8.30;99.90;;;;;;5030256;28;20033;-78
2022/04/10 11:55:40;;;;;;;9.25;8.07;;;8.60;99.90;;;;;;5031056;28;20044;-77
2022/04/10 11:58:15;;;;;;;8.77;7.13;;;9.10;99.90;;;;;;5026186;28;20048;-77
2022/04/10 12:00:59;;;;;;;9.50;7.30;;;9.40;99.90;;;;;;5026047;28;20048;-79
2022/04/10 12:03:27;;;;;;;12.23;7.90;;;9.20;99.80;;;;;;5032301;28;20030;-77
2022/04/10 12:05:54;;;;;;;10.18;7.30;;;9.10;97.60;;;;;;5032685;28;20029;-76
2022/04/10 12:08:22;;;;;;;6.97;6.38;;;9.40;97.90;;;;;;5029227;28;20466;-83
2022/04/10 12:10:53;;;;;;;7.18;5.78;;;9.30;95.30;;;;;;5030449;28;20044;-83
2022/04/10 12:13:21;;;;;;;6.82;5.50;;;9.60;97.40;;;;;;5023080;28;20045;-84
2022/04/10 12:16:01;;;;;;;7.50;6.00;;;9.50;94.80;;;;;;5026688;28;20033;-87
2022/04/10 12:18:28;;;;;;;7.30;6.40;;;9.60;96.60;;;;;;5026694;28;20033;-83
2022/04/10 12:21:01;;;;;;;6.82;6.22;;;9.70;97.60;;;;;;5031104;28;20041;-83
2022/04/10 12:23:27;;;;;;;10.98;6.78;;;9.50;97.50;;;;;;5026579;28;20028;-85
2022/04/10 12:25:55;;;;;;;6.95;6.25;;;9.20;98.40;;;;;;5032305;28;20032;-84
2022/04/10 12:28:22;;;;;;;9.40;7.10;;;8.80;97.50;;;;;;5031357;28;20041;-83
2022/04/10 12:30:50;;;;;;;8.38;5.82;;;8.80;99.90;;;;;;5013622;28;20033;-83
2022/04/10 12:33:18;;;;;;;7.88;5.50;;;8.90;97.60;;;;;;5033486;28;20041;-84
2022/04/10 12:35:45;;;;;;;7.15;6.07;;;8.90;98.90;;;;;;5013818;28;20037;-80
2022/04/10 12:38:18;;;;;;;6.47;5.40;;;8.90;99.40;;;;;;5023792;28;20037;-79
2022/04/10 12:40:44;;;;;;;7.10;6.05;;;9.00;97.30;;;;;;5020849;28;20045;-80
2022/04/10 12:43:14;;;;;;;7.15;5.50;;;9.10;99.20;;;;;;5001709;28;20053;-79
2022/04/10 12:45:42;;;;;;;9.38;6.85;;;9.10;97.20;;;;;;5017420;28;20044;-82
2022/04/10 12:48:26;;;;;;;7.10;5.78;;;8.90;95.30;;;;;;5035747;28;20036;-81
2022/04/10 12:51:09;;;;;;;4.22;3.58;;;8.80;96.30;;;;;;5024738;28;20033;-82
2022/04/10 12:53:36;;;;;;;6.22;3.00;;;8.30;95.40;;;;;;5015096;28;20041;-84
2022/04/10 12:56:04;;;;;;;4.68;1.33;;;8.10;93.80;;;;;;5014154;28;20042;-78
2022/04/10 12:58:47;;;;;;;4.00;1.67;;;7.50;93.70;;;;;;5032071;28;20044;-80
2022/04/10 13:01:28;;;;;;;3.17;1.83;;;7.00;96.20;;;;;;5029841;28;20390;-78
2022/04/10 13:03:56;;;;;;;7.60;2.47;;;6.80;98.00;;;;;;5018082;28;20049;-82